SBOSBO BHX / EGBB
Speedbird OnlineSpeedbird Online BHX / EGBB

Birmingham International Airport
20:09 10.1°C

Location Birmingham, United Kingdom
Latitude: 52.453899383499994
Longitude: -1.74802994728
Local Time 20:09 on 20 Apr 2024
UTC +1 hours (Europe/London)
METAR EGBB 201850Z 01005KT CAVOK 10/01 Q1028
TAF TAF EGBB 201657Z 2018/2118 05005KT 9999 SCT045
Weather As Of 20 Apr 2024 20:09
Description Clear sky
Wind 9 km/h from North (10°)
Cloud Cover 0%
Precipitation Rain: none, Snow: none
Sunrise 05:57
Sunset 20:13
Rotations During the last 90 days there were
1 flights to LCY
Lounges Aspire Lounge, Main Terminal
Web Airport Website | Wikipedia
Codes IATA: BHX
ICAO: EGBB
Altitude 100 Meter / 327 Feet
Distance 166 KM / 103 Miles
from London.
Runways
RunwayLength (m)Surface
153052Asphalt
333052Asphalt
Radio
TypeDescriptionFrequency
APPAPP118.05
ATISATIS136.02
GNDGND121.8
TWRTWR118.3
Live ATC



Support Speedbird Online

© 2017-2024 Speedbird Online